Time;durP1;ratioP1;P1;durP2;ratioP2;P2;SDS_P1;SDS_P2;PMS_P1;PMS_P2;Temp;Humidity;BMP_temperature;BMP_pressure;BME280_temperature;BME280_humidity;BME280_pressure;Samples;Min_cycle;Max_cycle;Signal;HPM_P1;HPM_P2
2022/05/18 00:00:16;;;;;;;5.22;2.60;;;18.00;72.20;;;;;;5048796;28;20032;-92
2022/05/18 00:02:42;;;;;;;7.50;2.90;;;18.00;72.40;;;;;;5044354;28;20404;-91
2022/05/18 00:05:09;;;;;;;3.67;3.30;;;18.00;72.30;;;;;;5050522;28;20028;-91
2022/05/18 00:07:35;;;;;;;8.73;2.95;;;18.00;72.30;;;;;;5051796;28;20024;-91
2022/05/18 00:10:01;;;;;;;4.75;3.05;;;18.00;72.40;;;;;;5053282;28;20027;-91
2022/05/18 00:12:27;;;;;;;7.43;2.90;;;17.90;72.40;;;;;;5054693;28;20032;-91
2022/05/18 00:14:53;;;;;;;9.65;3.40;;;17.90;72.50;;;;;;5054203;28;20029;-91
2022/05/18 00:17:18;;;;;;;4.18;3.08;;;17.90;73.00;;;;;;5050513;28;20055;-91
2022/05/18 00:19:44;;;;;;;4.57;3.17;;;17.90;72.50;;;;;;5051146;28;20067;-92
2022/05/18 00:22:10;;;;;;;5.15;3.55;;;17.90;72.60;;;;;;5065143;28;20025;-92
2022/05/18 00:24:36;;;;;;;5.38;3.08;;;17.90;72.70;;;;;;5059061;28;20025;-92
2022/05/18 00:27:03;;;;;;;5.18;3.78;;;17.80;72.80;;;;;;5048466;28;20070;-92
2022/05/18 00:29:33;;;;;;;4.35;3.03;;;17.80;73.00;;;;;;5045770;28;20246;-92
2022/05/18 00:31:58;;;;;;;4.10;3.28;;;17.70;73.10;;;;;;5052960;28;20495;-91
2022/05/18 00:34:24;;;;;;;4.45;3.38;;;17.70;73.30;;;;;;5050255;28;20063;-91
2022/05/18 00:36:50;;;;;;;8.45;3.97;;;17.70;73.40;;;;;;5052274;28;20020;-92
2022/05/18 00:39:16;;;;;;;6.20;3.65;;;17.70;73.50;;;;;;5057052;28;20105;-92
2022/05/18 00:41:42;;;;;;;6.22;3.10;;;17.70;73.70;;;;;;5050105;28;20365;-91
2022/05/18 00:44:08;;;;;;;5.50;3.60;;;17.60;73.90;;;;;;5049677;28;20532;-92
2022/05/18 00:46:33;;;;;;;3.88;2.90;;;17.60;74.00;;;;;;5060972;28;20115;-92
2022/05/18 00:49:01;;;;;;;3.38;2.97;;;17.60;74.10;;;;;;5057089;28;20029;-92
2022/05/18 00:51:38;;;;;;;5.28;3.10;;;17.60;74.30;;;;;;5051699;28;20050;-92
2022/05/18 00:54:22;;;;;;;5.68;3.40;;;17.60;74.50;;;;;;5045061;28;20025;-92
2022/05/18 00:57:06;;;;;;;6.78;3.40;;;17.60;74.50;;;;;;5061678;28;20163;-91
2022/05/18 00:59:56;;;;;;;4.22;3.50;;;17.60;74.50;;;;;;5049189;28;20503;-91
2022/05/18 01:02:27;;;;;;;5.43;3.47;;;17.60;74.60;;;;;;5049844;28;20029;-92
2022/05/18 01:04:56;;;;;;;5.20;3.40;;;17.60;74.70;;;;;;5047559;28;20028;-92
2022/05/18 01:07:31;;;;;;;5.55;3.42;;;17.50;74.60;;;;;;5049854;28;20146;-92
2022/05/18 01:09:58;;;;;;;7.07;3.85;;;17.50;74.80;;;;;;5057645;28;20040;-91
2022/05/18 01:12:24;;;;;;;4.15;3.40;;;17.40;74.60;;;;;;5051190;28;20025;-92
2022/05/18 01:14:54;;;;;;;4.70;3.45;;;17.30;75.00;;;;;;5059438;28;20169;-91
2022/05/18 01:17:23;;;;;;;4.57;3.72;;;17.30;75.90;;;;;;5046336;28;20033;-92
2022/05/18 01:19:58;;;;;;;4.10;3.33;;;17.30;75.50;;;;;;5067655;28;20472;-91
2022/05/18 01:22:56;;;;;;;5.20;3.50;;;17.30;75.80;;;;;;5048658;28;20037;-91
2022/05/18 01:25:49;;;;;;;4.55;3.38;;;17.20;75.60;;;;;;5054546;28;20115;-92
2022/05/18 01:28:15;;;;;;;5.18;3.22;;;17.20;75.70;;;;;;5053784;28;20485;-91
2022/05/18 01:30:45;;;;;;;3.90;3.40;;;17.10;75.70;;;;;;5047163;28;20052;-91
2022/05/18 01:33:12;;;;;;;3.53;3.08;;;17.10;76.10;;;;;;5053991;28;20108;-92
2022/05/18 01:35:41;;;;;;;4.15;3.03;;;17.10;76.30;;;;;;5042025;28;20429;-92
2022/05/18 01:38:12;;;;;;;4.95;2.92;;;17.10;76.50;;;;;;5041598;28;20025;-92
2022/05/18 01:40:56;;;;;;;6.07;3.30;;;17.10;76.50;;;;;;5034216;28;20029;-92
2022/05/18 01:43:24;;;;;;;8.93;3.33;;;17.10;76.40;;;;;;5028127;28;20025;-91
2022/05/18 01:45:53;;;;;;;5.30;2.97;;;17.10;76.30;;;;;;5054671;28;20021;-92
2022/05/18 01:48:21;;;;;;;4.90;3.33;;;17.10;76.30;;;;;;5054558;28;20017;-91
2022/05/18 01:50:47;;;;;;;5.07;3.28;;;17.00;76.50;;;;;;5056388;28;20184;-91
2022/05/18 01:53:13;;;;;;;4.00;2.88;;;16.90;76.60;;;;;;5057104;28;20097;-91
2022/05/18 01:55:39;;;;;;;3.83;3.13;;;16.80;76.50;;;;;;5045967;28;20032;-92
2022/05/18 01:58:08;;;;;;;6.75;3.47;;;16.80;76.80;;;;;;5034483;28;20025;-92
2022/05/18 02:00:33;;;;;;;3.50;3.20;;;16.80;77.10;;;;;;5037958;28;20664;-92
2022/05/18 02:02:59;;;;;;;6.93;3.40;;;16.70;77.10;;;;;;5050934;28;20132;-92
2022/05/18 02:05:26;;;;;;;5.00;3.20;;;16.70;77.20;;;;;;5033191;28;20061;-91
2022/05/18 02:07:52;;;;;;;4.63;3.03;;;16.70;77.40;;;;;;5050221;28;20021;-91
2022/05/18 02:10:18;;;;;;;6.05;3.22;;;16.60;77.60;;;;;;5033002;28;20039;-91
2022/05/18 02:12:44;;;;;;;5.55;3.20;;;16.60;77.60;;;;;;5034570;28;20521;-92
2022/05/18 02:15:09;;;;;;;4.35;3.30;;;16.60;77.70;;;;;;5033725;28;20033;-91
2022/05/18 02:17:37;;;;;;;4.72;3.33;;;16.60;77.80;;;;;;5035209;28;20031;-91
2022/05/18 02:20:04;;;;;;;4.88;3.17;;;16.60;77.80;;;;;;5031885;28;20489;-92
2022/05/18 02:22:30;;;;;;;4.68;3.60;;;16.60;77.90;;;;;;5031320;28;20730;-92
2022/05/18 02:24:55;;;;;;;3.42;3.10;;;16.60;78.00;;;;;;5034479;28;20033;-92
2022/05/18 02:27:21;;;;;;;4.88;3.50;;;16.50;78.10;;;;;;5034359;28;20029;-92
2022/05/18 02:29:47;;;;;;;8.80;3.20;;;16.50;78.10;;;;;;5034914;28;20032;-93
2022/05/18 02:32:12;;;;;;;4.60;3.13;;;16.40;78.10;;;;;;5034393;28;20033;-92
2022/05/18 02:34:38;;;;;;;5.20;3.00;;;16.40;78.10;;;;;;5034360;28;20012;-90
2022/05/18 02:37:04;;;;;;;6.50;3.38;;;16.30;78.00;;;;;;5064568;28;20096;-90
2022/05/18 02:39:30;;;;;;;6.35;3.80;;;16.20;78.00;;;;;;5075171;28;20063;-90
2022/05/18 02:41:56;;;;;;;4.68;3.22;;;16.10;78.30;;;;;;5082335;28;20084;-91
2022/05/18 02:44:22;;;;;;;5.93;3.05;;;16.10;78.60;;;;;;5067316;28;20036;-91
2022/05/18 02:46:48;;;;;;;8.93;3.45;;;16.00;78.90;;;;;;5055982;28;20043;-91
2022/05/18 02:49:15;;;;;;;5.50;3.70;;;16.00;79.00;;;;;;5052390;28;20104;-91
2022/05/18 02:51:41;;;;;;;3.85;3.28;;;16.00;79.10;;;;;;5049678;28;20035;-91
2022/05/18 02:56:05;;;;;;;3.72;3.22;;;16.00;79.20;;;;;;5048007;28;20020;-91
2022/05/18 02:56:54;;;;;;;6.63;3.30;;;16.00;79.20;;;;;;5061297;28;20056;-91
2022/05/18 02:59:21;;;;;;;3.50;3.10;;;16.00;79.20;;;;;;5054341;28;20033;-92
2022/05/18 03:01:46;;;;;;;7.22;3.30;;;16.00;79.20;;;;;;5046372;28;20025;-92
2022/05/18 03:04:12;;;;;;;4.07;3.28;;;16.00;79.30;;;;;;5058121;28;20083;-91
2022/05/18 03:06:38;;;;;;;3.15;2.83;;;16.00;79.30;;;;;;5055294;28;20066;-92
2022/05/18 03:09:04;;;;;;;5.22;3.55;;;16.00;79.50;;;;;;5049653;28;20024;-91
2022/05/18 03:11:30;;;;;;;5.88;3.00;;;15.90;79.50;;;;;;5054279;28;20071;-92
2022/05/18 03:13:55;;;;;;;4.95;3.30;;;15.90;79.70;;;;;;5063691;28;20732;-91
2022/05/18 03:16:23;;;;;;;4.90;3.55;;;15.80;79.80;;;;;;5061586;28;20032;-92
2022/05/18 03:18:49;;;;;;;5.55;3.42;;;15.80;80.00;;;;;;5056618;28;20120;-91
2022/05/18 03:23:58;;;;;;;6.18;3.53;;;15.70;80.00;;;;;;5062322;28;20075;-91
2022/05/18 03:26:25;;;;;;;5.00;3.65;;;15.70;80.20;;;;;;5056373;28;20029;-91
2022/05/18 03:28:52;;;;;;;4.00;3.60;;;15.60;80.30;;;;;;5058055;28;20052;-91
2022/05/18 03:31:18;;;;;;;4.63;4.00;;;15.60;80.50;;;;;;5039201;28;20036;-91
2022/05/18 03:33:45;;;;;;;5.32;4.13;;;15.50;80.50;;;;;;5059999;28;20032;-91
2022/05/18 03:36:13;;;;;;;5.63;3.70;;;15.50;80.60;;;;;;5051002;28;20424;-91
2022/05/18 03:38:40;;;;;;;5.07;3.92;;;15.40;81.00;;;;;;5046401;28;20028;-91
2022/05/18 03:41:06;;;;;;;4.18;3.60;;;15.40;81.20;;;;;;5052710;28;20519;-91
2022/05/18 03:43:31;;;;;;;4.40;3.85;;;15.30;81.30;;;;;;5067998;28;20024;-92
2022/05/18 03:46:00;;;;;;;5.03;3.88;;;15.30;81.50;;;;;;5050012;28;20491;-91
2022/05/18 03:48:27;;;;;;;6.22;3.90;;;15.40;81.60;;;;;;5061609;28;20032;-92
2022/05/18 03:50:56;;;;;;;7.00;4.00;;;15.30;81.60;;;;;;5066938;28;20040;-91
2022/05/18 03:53:23;;;;;;;11.55;4.50;;;15.30;81.80;;;;;;5042270;28;20029;-91
2022/05/18 03:55:48;;;;;;;6.93;3.80;;;15.30;81.80;;;;;;5049548;28;20675;-92
2022/05/18 03:58:14;;;;;;;13.60;4.00;;;15.30;82.00;;;;;;5058069;28;20024;-91
2022/05/18 04:00:42;;;;;;;4.22;3.72;;;15.30;82.00;;;;;;5049591;28;20111;-91
2022/05/18 04:03:09;;;;;;;5.97;3.90;;;15.30;82.10;;;;;;5052703;28;20048;-91
2022/05/18 04:05:37;;;;;;;4.90;3.63;;;15.30;82.20;;;;;;5048671;28;20443;-91
2022/05/18 04:08:03;;;;;;;5.78;3.80;;;15.30;82.30;;;;;;5061023;28;20503;-92
2022/05/18 04:10:28;;;;;;;8.15;4.20;;;15.30;82.30;;;;;;5052400;28;20056;-91
2022/05/18 04:12:54;;;;;;;5.82;3.60;;;15.30;82.40;;;;;;5051198;28;20040;-91
2022/05/18 04:15:20;;;;;;;5.53;3.92;;;15.30;82.40;;;;;;5051851;28;20036;-92
2022/05/18 04:17:46;;;;;;;6.85;3.50;;;15.30;82.70;;;;;;5054422;28;20119;-91
2022/05/18 04:20:14;;;;;;;7.00;3.75;;;15.30;83.40;;;;;;5055613;28;20046;-92
2022/05/18 04:23:36;;;;;;;6.65;3.65;;;15.30;83.00;;;;;;5078091;23;20141;-88
2022/05/18 04:26:01;;;;;;;5.30;4.15;;;15.30;83.00;;;;;;5070086;28;20024;-88
2022/05/18 04:28:27;;;;;;;5.05;4.10;;;15.30;82.80;;;;;;5070506;28;20505;-88
2022/05/18 04:30:53;;;;;;;5.82;4.07;;;15.30;82.90;;;;;;5070009;28;20023;-90
2022/05/18 04:33:22;;;;;;;6.68;4.47;;;15.30;83.00;;;;;;5058955;28;20024;-89
2022/05/18 04:35:50;;;;;;;4.20;3.70;;;15.30;83.30;;;;;;5053735;28;20032;-89
2022/05/18 04:38:20;;;;;;;4.93;4.45;;;15.30;83.30;;;;;;5054196;28;20111;-89
2022/05/18 04:40:46;;;;;;;5.35;4.03;;;15.30;83.30;;;;;;5054902;28;20020;-89
2022/05/18 04:43:12;;;;;;;5.05;4.20;;;15.40;83.40;;;;;;5053929;28;20044;-90
2022/05/18 04:45:44;;;;;;;5.70;4.13;;;15.40;83.60;;;;;;5054826;28;20488;-90
2022/05/18 04:48:11;;;;;;;6.18;4.03;;;15.50;83.70;;;;;;5058061;28;20023;-89
2022/05/18 04:50:37;;;;;;;5.75;3.85;;;15.50;83.70;;;;;;5059957;28;20028;-89
2022/05/18 04:53:03;;;;;;;7.00;4.20;;;15.50;83.80;;;;;;5058162;28;20082;-90
2022/05/18 04:55:30;;;;;;;5.40;4.40;;;15.60;83.90;;;;;;5057794;28;20060;-90
2022/05/18 04:58:00;;;;;;;6.03;4.57;;;15.60;83.90;;;;;;5048899;28;20031;-89
2022/05/18 05:00:26;;;;;;;5.28;3.95;;;15.70;83.80;;;;;;5058488;28;20029;-89
2022/05/18 05:02:56;;;;;;;6.30;4.05;;;15.90;83.60;;;;;;5055263;28;20100;-89
2022/05/18 05:05:22;;;;;;;6.15;4.38;;;16.00;83.40;;;;;;5056152;28;20013;-89
2022/05/18 05:07:47;;;;;;;8.10;4.80;;;16.00;83.10;;;;;;5050424;28;20021;-90
2022/05/18 05:10:14;;;;;;;6.20;3.92;;;16.00;82.80;;;;;;5058544;28;20021;-89
2022/05/18 05:12:39;;;;;;;5.30;4.30;;;15.90;83.00;;;;;;5054449;28;20490;-90
2022/05/18 05:15:05;;;;;;;5.70;4.13;;;16.00;83.40;;;;;;5055644;28;20032;-89
2022/05/18 05:17:31;;;;;;;6.18;4.80;;;16.00;83.60;;;;;;5057585;28;20028;-89
2022/05/18 05:19:59;;;;;;;8.13;4.75;;;16.20;83.90;;;;;;5065356;28;20036;-88
2022/05/18 05:22:25;;;;;;;7.07;4.55;;;16.20;83.90;;;;;;5068046;28;20566;-90
2022/05/18 05:24:51;;;;;;;9.38;4.78;;;16.30;84.10;;;;;;5060793;28;20023;-89
2022/05/18 05:27:16;;;;;;;7.57;4.80;;;16.50;84.30;;;;;;5058525;28;20498;-88
2022/05/18 05:29:42;;;;;;;9.30;4.82;;;16.50;84.40;;;;;;5061980;28;20035;-91
2022/05/18 05:32:09;;;;;;;7.07;4.50;;;16.60;84.50;;;;;;5054549;28;20127;-89
2022/05/18 05:34:34;;;;;;;6.70;4.32;;;16.70;84.70;;;;;;5049137;28;20033;-88
2022/05/18 05:37:00;;;;;;;6.75;5.50;;;16.70;85.30;;;;;;5057181;28;20074;-88
2022/05/18 05:39:26;;;;;;;6.00;5.35;;;16.70;84.80;;;;;;5075212;28;20032;-89
2022/05/18 05:41:52;;;;;;;21.70;13.02;;;16.80;84.90;;;;;;5057008;28;20028;-89
2022/05/18 05:44:18;;;;;;;6.75;5.57;;;16.80;85.20;;;;;;5054019;28;20107;-89
2022/05/18 05:46:44;;;;;;;9.68;5.40;;;16.70;85.50;;;;;;5056407;28;20027;-89
2022/05/18 05:49:11;;;;;;;8.63;5.45;;;16.70;85.60;;;;;;5057703;28;20021;-88
2022/05/18 05:51:37;;;;;;;12.27;5.10;;;16.80;85.80;;;;;;5056232;28;20020;-91
2022/05/18 05:54:03;;;;;;;10.35;5.03;;;16.80;86.00;;;;;;5045393;28;20029;-89
2022/05/18 05:56:29;;;;;;;8.45;5.18;;;16.90;86.20;;;;;;5045178;28;20037;-88
2022/05/18 05:58:55;;;;;;;6.70;4.80;;;17.00;86.50;;;;;;5051575;28;20048;-88
2022/05/18 06:01:22;;;;;;;9.02;4.78;;;17.10;86.60;;;;;;5059520;28;20010;-88
2022/05/18 06:03:47;;;;;;;9.20;5.07;;;17.20;86.70;;;;;;5068879;28;20197;-88
2022/05/18 06:06:13;;;;;;;9.63;6.07;;;17.30;86.90;;;;;;5058646;28;20021;-88
2022/05/18 06:08:40;;;;;;;6.97;5.10;;;17.30;86.80;;;;;;5055533;28;20024;-88
2022/05/18 06:11:08;;;;;;;8.27;5.35;;;17.40;86.90;;;;;;5055581;28;20462;-89
2022/05/18 06:13:33;;;;;;;8.02;5.25;;;17.40;87.00;;;;;;5068423;28;20023;-89
2022/05/18 06:16:00;;;;;;;8.13;5.32;;;17.50;87.10;;;;;;5054442;28;20357;-89
2022/05/18 06:18:26;;;;;;;11.75;5.18;;;17.60;87.30;;;;;;5072233;28;20641;-89
2022/05/18 06:20:52;;;;;;;9.65;5.43;;;17.60;87.40;;;;;;5052763;28;20044;-88
2022/05/18 06:23:18;;;;;;;12.23;5.38;;;17.70;87.60;;;;;;5050677;28;20035;-89
2022/05/18 06:25:44;;;;;;;8.30;4.57;;;17.70;87.60;;;;;;5056357;28;20016;-89
2022/05/18 06:28:10;;;;;;;8.85;4.78;;;17.90;87.60;;;;;;5073812;28;20355;-89
2022/05/18 06:30:36;;;;;;;4.78;4.28;;;17.90;87.70;;;;;;5056772;28;20035;-90
2022/05/18 06:33:02;;;;;;;5.93;4.47;;;18.00;87.60;;;;;;5054279;28;20490;-89
2022/05/18 06:35:28;;;;;;;8.77;4.90;;;18.10;87.50;;;;;;5055722;28;20127;-89
2022/05/18 06:37:54;;;;;;;8.25;4.10;;;18.20;87.40;;;;;;5051779;28;20173;-89
2022/05/18 06:40:20;;;;;;;6.05;3.90;;;18.30;87.40;;;;;;5051238;28;20061;-90
2022/05/18 06:42:45;;;;;;;6.15;3.90;;;18.40;87.30;;;;;;5054996;28;20021;-90
2022/05/18 06:45:14;;;;;;;8.10;4.03;;;18.50;87.00;;;;;;5051821;28;20021;-89
2022/05/18 06:47:40;;;;;;;7.32;4.20;;;18.60;86.90;;;;;;5056310;28;20039;-92
2022/05/18 06:50:09;;;;;;;7.75;3.60;;;18.70;86.70;;;;;;5057184;28;20016;-92
2022/05/18 06:52:35;;;;;;;9.85;4.18;;;18.70;86.60;;;;;;5056377;28;20524;-88
2022/05/18 06:55:01;;;;;;;6.43;3.88;;;18.90;87.00;;;;;;5054787;28;20032;-89
2022/05/18 06:57:26;;;;;;;9.23;4.90;;;18.90;86.50;;;;;;5055933;28;20039;-90
2022/05/18 06:59:55;;;;;;;6.50;4.43;;;19.00;86.40;;;;;;5065298;28;20143;-89
2022/05/18 07:02:22;;;;;;;8.05;3.95;;;19.20;86.40;;;;;;5051091;28;20542;-90
2022/05/18 07:04:47;;;;;;;6.40;3.80;;;19.40;86.10;;;;;;5047911;28;20498;-90
2022/05/18 07:07:13;;;;;;;5.88;4.00;;;19.60;86.10;;;;;;5056421;28;20016;-90
2022/05/18 07:09:38;;;;;;;10.50;3.88;;;19.70;85.90;;;;;;5055295;28;20024;-89
2022/05/18 07:12:04;;;;;;;6.28;4.00;;;20.00;85.70;;;;;;5050900;28;20024;-89
2022/05/18 07:14:30;;;;;;;5.68;3.95;;;20.30;85.40;;;;;;5044406;28;20020;-90
2022/05/18 07:16:57;;;;;;;6.82;4.57;;;20.60;84.60;;;;;;5052042;28;20024;-89
2022/05/18 07:19:29;;;;;;;6.80;3.95;;;20.70;83.90;;;;;;5056549;28;20024;-90
2022/05/18 07:21:54;;;;;;;;;;;20.90;83.70;;;;;;5056359;28;20089;-89
2022/05/18 07:24:21;;;;;;;5.45;3.72;;;21.10;83.20;;;;;;5055683;28;19912;-90
2022/05/18 07:26:46;;;;;;;11.35;4.43;;;21.40;83.20;;;;;;5058154;28;20033;-90
2022/05/18 07:29:12;;;;;;;7.18;4.05;;;21.60;83.40;;;;;;5056074;28;20043;-90
2022/05/18 07:34:22;;;;;;;6.13;3.55;;;22.00;82.10;;;;;;5074453;28;20031;-90
2022/05/18 07:36:53;;;;;;;5.68;3.97;;;22.30;82.00;;;;;;5037614;28;20028;-90
2022/05/18 07:39:19;;;;;;;7.18;3.85;;;22.50;81.60;;;;;;5035902;28;20029;-90
2022/05/18 07:41:45;;;;;;;7.05;4.13;;;22.80;81.50;;;;;;5048451;28;20043;-90
2022/05/18 07:44:11;;;;;;;9.23;4.22;;;23.10;81.20;;;;;;5055186;28;20029;-91
2022/05/18 07:46:36;;;;;;;5.97;3.88;;;23.20;80.10;;;;;;5056660;28;20070;-90
2022/05/18 07:49:03;;;;;;;7.78;3.70;;;23.30;79.50;;;;;;5057057;28;20414;-90
2022/05/18 07:51:28;;;;;;;3.17;2.50;;;23.40;79.20;;;;;;5056819;28;20028;-90
2022/05/18 07:53:54;;;;;;;5.05;2.50;;;23.70;78.90;;;;;;5056634;28;20025;-90
2022/05/18 07:56:20;;;;;;;3.17;2.35;;;24.10;77.70;;;;;;5056862;28;20042;-90
2022/05/18 07:58:45;;;;;;;2.83;2.10;;;24.40;77.30;;;;;;5047268;28;20021;-90
2022/05/18 08:01:11;;;;;;;5.55;2.20;;;24.80;76.60;;;;;;5052121;28;20110;-90
2022/05/18 08:03:37;;;;;;;3.80;2.60;;;25.20;75.10;;;;;;5057674;28;20039;-90
2022/05/18 08:06:04;;;;;;;4.00;2.28;;;25.60;74.20;;;;;;5074688;28;20092;-93
2022/05/18 08:08:29;;;;;;;3.25;2.47;;;25.90;72.70;;;;;;5079187;28;20050;-91
2022/05/18 08:16:29;;;;;;;2.92;2.40;;;26.70;71.50;;;;;;5074241;28;20401;-90
2022/05/18 08:18:54;;;;;;;5.32;2.60;;;27.10;70.50;;;;;;5057225;28;20029;-90
2022/05/18 08:21:20;;;;;;;8.25;2.22;;;27.10;69.50;;;;;;5055230;28;20052;-90
2022/05/18 08:23:46;;;;;;;4.85;2.50;;;27.00;68.30;;;;;;5055014;28;20134;-90
2022/05/18 08:26:12;;;;;;;2.72;2.17;;;26.90;68.00;;;;;;5049375;28;20040;-89
2022/05/18 08:28:38;;;;;;;3.38;2.20;;;26.80;68.10;;;;;;5057920;28;20032;-89
2022/05/18 08:31:04;;;;;;;5.88;2.08;;;27.00;68.00;;;;;;5058651;28;20025;-90
2022/05/18 08:33:32;;;;;;;2.78;1.92;;;27.10;66.80;;;;;;5071328;28;20047;-93
2022/05/18 08:36:04;;;;;;;3.28;1.67;;;27.40;66.60;;;;;;5076744;28;20008;-91
2022/05/18 08:38:30;;;;;;;2.33;1.55;;;27.70;65.50;;;;;;5067471;28;20024;-90
2022/05/18 08:40:55;;;;;;;4.15;1.73;;;28.10;64.70;;;;;;5056199;28;20081;-90
2022/05/18 08:43:29;;;;;;;2.42;1.50;;;28.40;63.30;;;;;;5055040;28;20025;-90
2022/05/18 08:46:03;;;;;;;1.92;1.60;;;28.60;62.20;;;;;;5051337;28;20028;-90
2022/05/18 08:48:49;;;;;;;1.70;1.38;;;28.90;61.70;;;;;;5036681;28;20706;-91
2022/05/18 08:51:58;;;;;;;2.95;1.80;;;29.10;60.30;;;;;;5035875;28;20100;-89
2022/05/18 08:54:53;;;;;;;2.47;1.48;;;29.10;59.70;;;;;;5038089;28;20021;-90
2022/05/18 08:57:28;;;;;;;1.90;1.40;;;29.00;59.90;;;;;;5033644;28;20033;-90
2022/05/18 09:00:08;;;;;;;1.17;1.08;;;29.40;60.10;;;;;;5039408;28;20036;-90
2022/05/18 09:02:34;;;;;;;2.10;1.30;;;29.80;58.10;;;;;;5055475;28;20027;-90
2022/05/18 09:05:03;;;;;;;5.53;1.60;;;30.20;58.00;;;;;;5057776;28;20029;-90
2022/05/18 09:07:36;;;;;;;2.92;1.30;;;30.50;57.20;;;;;;5057364;28;20486;-90
2022/05/18 09:10:13;;;;;;;7.32;1.40;;;30.90;56.40;;;;;;5055697;28;20028;-90
2022/05/18 09:12:52;;;;;;;3.90;1.33;;;31.30;55.10;;;;;;5061527;28;20047;-90
2022/05/18 09:15:34;;;;;;;2.80;1.10;;;31.70;53.80;;;;;;5056247;28;20028;-88
2022/05/18 09:18:07;;;;;;;1.88;1.27;;;32.00;51.70;;;;;;5057066;28;20027;-88
2022/05/18 09:20:46;;;;;;;1.70;1.20;;;32.50;51.20;;;;;;5056497;28;20123;-88
2022/05/18 09:23:26;;;;;;;1.88;1.33;;;32.90;51.00;;;;;;5055864;28;20119;-88
2022/05/18 09:26:10;;;;;;;1.75;1.25;;;33.60;49.80;;;;;;5056647;28;20029;-89
2022/05/18 09:29:31;;;;;;;2.72;1.00;;;34.30;48.00;;;;;;5056073;28;20211;-89
2022/05/18 09:32:03;;;;;;;2.67;1.13;;;34.90;47.30;;;;;;5055944;28;20429;-89
2022/05/18 09:35:03;;;;;;;1.38;0.90;;;35.80;46.40;;;;;;5060057;28;20060;-89
2022/05/18 09:38:03;;;;;;;1.92;1.25;;;36.60;45.80;;;;;;5065512;28;20082;-90
2022/05/18 09:40:45;;;;;;;2.83;1.30;;;37.40;44.80;;;;;;5058678;28;20401;-89
2022/05/18 09:43:33;;;;;;;2.65;1.60;;;37.90;44.30;;;;;;5059381;28;20025;-90
2022/05/18 09:45:59;;;;;;;2.80;1.42;;;38.40;43.20;;;;;;5060430;28;20025;-89
2022/05/18 09:48:42;;;;;;;2.22;1.27;;;38.70;42.00;;;;;;5059144;28;20107;-89
2022/05/18 09:51:09;;;;;;;2.45;1.00;;;38.90;41.30;;;;;;5058981;28;20020;-90
2022/05/18 09:53:40;;;;;;;3.47;1.38;;;39.20;40.40;;;;;;5058552;28;20031;-89
2022/05/18 09:56:24;;;;;;;5.00;1.23;;;39.40;39.00;;;;;;5059636;28;20024;-89
2022/05/18 09:59:24;;;;;;;5.90;1.10;;;39.20;39.60;;;;;;5059012;28;20699;-90
2022/05/18 10:07:27;;;;;;;1.63;1.10;;;39.60;37.40;;;;;;5076823;28;20146;-89
2022/05/18 10:10:14;;;;;;;5.60;1.20;;;40.00;37.50;;;;;;5060108;28;20085;-89
2022/05/18 10:12:54;;;;;;;3.58;0.98;;;40.00;36.80;;;;;;5057689;28;20085;-90
2022/05/18 10:15:25;;;;;;;2.95;1.00;;;40.00;37.30;;;;;;5042637;28;20029;-89
2022/05/18 10:18:19;;;;;;;3.72;0.95;;;39.80;36.10;;;;;;5057088;28;20226;-89
2022/05/18 10:21:09;;;;;;;3.20;0.90;;;39.40;36.30;;;;;;5043568;28;20135;-89
2022/05/18 10:23:50;;;;;;;3.10;1.20;;;39.30;36.60;;;;;;5093914;22;20059;-87
2022/05/18 10:26:36;;;;;;;1.73;1.02;;;39.20;37.00;;;;;;5011668;28;20033;-88
2022/05/18 10:29:07;;;;;;;1.13;0.80;;;39.30;37.20;;;;;;4994951;28;20021;-88
2022/05/18 10:31:43;;;;;;;2.97;1.05;;;39.70;36.90;;;;;;5011836;28;20486;-88
2022/05/18 10:34:17;;;;;;;2.00;0.90;;;39.80;37.00;;;;;;4994433;28;20044;-88
2022/05/18 10:36:50;;;;;;;3.65;1.10;;;39.80;37.10;;;;;;4995827;28;20026;-88
2022/05/18 10:39:37;;;;;;;2.30;1.08;;;39.70;37.00;;;;;;5004092;28;20029;-87
2022/05/18 10:42:31;;;;;;;1.17;0.90;;;39.60;37.70;;;;;;5001630;28;20517;-87
2022/05/18 10:45:00;;;;;;;2.58;1.35;;;39.30;38.30;;;;;;5003756;28;20026;-88
2022/05/18 10:47:36;;;;;;;3.47;1.38;;;38.90;38.50;;;;;;4995764;28;20022;-88
2022/05/18 10:50:32;;;;;;;2.17;1.10;;;38.20;38.60;;;;;;4992187;28;20033;-87
2022/05/18 10:53:01;;;;;;;3.00;1.13;;;37.20;38.80;;;;;;5000631;28;20395;-88
2022/05/18 10:55:31;;;;;;;3.38;1.35;;;36.30;39.40;;;;;;4991148;28;20383;-87
2022/05/18 10:58:10;;;;;;;3.20;1.02;;;35.60;39.90;;;;;;4999735;28;20034;-87
2022/05/18 11:00:52;;;;;;;4.13;1.00;;;35.10;40.00;;;;;;5004618;28;20033;-88
2022/05/18 11:03:30;;;;;;;1.90;1.10;;;34.70;41.00;;;;;;5004527;28;20077;-87
2022/05/18 11:06:12;;;;;;;4.72;1.50;;;34.50;41.50;;;;;;5001417;28;20045;-87
2022/05/18 11:08:37;;;;;;;1.30;1.10;;;34.30;41.00;;;;;;5002925;28;20422;-87
2022/05/18 11:11:06;;;;;;;4.10;1.17;;;33.90;40.70;;;;;;4998544;28;20165;-88
2022/05/18 11:13:56;;;;;;;3.92;1.30;;;33.50;41.10;;;;;;4987230;28;20113;-87
2022/05/18 11:16:52;;;;;;;2.55;1.30;;;33.30;41.70;;;;;;5014484;28;20087;-87
2022/05/18 11:19:29;;;;;;;1.80;1.10;;;33.00;42.00;;;;;;4997206;28;20462;-87
2022/05/18 11:22:18;;;;;;;3.20;1.20;;;32.80;41.60;;;;;;4997193;28;20025;-87
2022/05/18 11:25:08;;;;;;;4.82;1.27;;;32.50;42.10;;;;;;5011917;28;20034;-87
2022/05/18 11:27:37;;;;;;;3.22;1.10;;;32.20;41.90;;;;;;5012275;28;20022;-86
2022/05/18 11:30:06;;;;;;;1.70;1.20;;;32.00;42.00;;;;;;5008613;28;20487;-88
2022/05/18 11:33:08;;;;;;;2.97;1.20;;;31.80;42.50;;;;;;5007994;28;20253;-87
2022/05/18 11:35:58;;;;;;;3.90;1.23;;;31.80;43.00;;;;;;4994718;28;20056;-87
2022/05/18 11:38:45;;;;;;;1.42;1.33;;;31.70;43.10;;;;;;5013621;28;20442;-87
2022/05/18 11:41:30;;;;;;;2.83;1.23;;;31.70;43.00;;;;;;5012496;28;20041;-87
2022/05/18 11:44:07;;;;;;;4.32;1.70;;;31.60;43.10;;;;;;4992567;28;20076;-88
2022/05/18 11:46:38;;;;;;;7.50;1.30;;;31.60;43.20;;;;;;5007069;28;20086;-87
2022/05/18 11:49:22;;;;;;;4.53;1.50;;;31.70;43.30;;;;;;4994749;28;20034;-87
2022/05/18 11:51:51;;;;;;;2.30;1.30;;;31.80;43.50;;;;;;4993353;28;20030;-87
2022/05/18 11:54:35;;;;;;;3.25;1.20;;;31.80;43.40;;;;;;4987364;28;20357;-87
2022/05/18 11:57:21;;;;;;;2.45;1.35;;;31.70;42.90;;;;;;4975036;28;20033;-88
2022/05/18 12:00:02;;;;;;;5.78;1.25;;;31.50;42.70;;;;;;4998743;28;20179;-87
2022/05/18 12:03:07;;;;;;;3.72;1.40;;;31.40;42.90;;;;;;5010975;28;20026;-87
2022/05/18 12:05:41;;;;;;;3.25;1.45;;;31.20;43.60;;;;;;5007246;28;20040;-87
2022/05/18 12:08:35;;;;;;;5.50;1.88;;;31.20;44.00;;;;;;4993584;28;20375;-87
2022/05/18 12:11:11;;;;;;;2.85;2.45;;;31.10;44.50;;;;;;4991933;28;20131;-90
2022/05/18 12:13:36;;;;;;;2.72;1.80;;;31.00;44.60;;;;;;4989954;28;20041;-88
2022/05/18 12:16:09;;;;;;;4.20;1.50;;;31.10;44.90;;;;;;4995026;28;20026;-87
2022/05/18 12:18:42;;;;;;;2.88;1.80;;;31.20;45.00;;;;;;4993613;28;20030;-89
2022/05/18 12:21:16;;;;;;;3.42;1.30;;;31.20;45.00;;;;;;5016813;28;20093;-89
2022/05/18 12:23:48;;;;;;;9.55;1.60;;;31.30;44.90;;;;;;5026407;28;20030;-89
2022/05/18 12:26:15;;;;;;;;;;;31.10;44.70;;;;;;5020521;28;20033;-88
2022/05/18 12:28:42;;;;;;;5.40;1.55;;;30.80;45.00;;;;;;5013419;28;20356;-89
2022/05/18 12:31:09;;;;;;;3.28;1.70;;;30.70;45.00;;;;;;5036701;28;20029;-87
2022/05/18 12:33:47;;;;;;;1.73;1.45;;;30.60;45.20;;;;;;5025911;28;20041;-88
2022/05/18 12:36:16;;;;;;;2.08;1.38;;;30.60;45.10;;;;;;5009732;28;20030;-87
2022/05/18 12:38:55;;;;;;;5.95;1.48;;;30.60;45.20;;;;;;4998273;28;20037;-87
2022/05/18 12:41:26;;;;;;;4.15;1.45;;;30.60;45.20;;;;;;4997762;28;20196;-89
2022/05/18 12:44:06;;;;;;;5.35;1.60;;;30.50;44.60;;;;;;5010897;28;20045;-88
2022/05/18 12:46:42;;;;;;;1.92;1.40;;;30.30;45.00;;;;;;4998219;28;20026;-89
2022/05/18 12:49:17;;;;;;;1.83;1.25;;;30.20;45.10;;;;;;5013485;28;20470;-89
2022/05/18 12:51:58;;;;;;;1.90;1.45;;;30.00;45.40;;;;;;5028243;28;20033;-86
2022/05/18 12:54:33;;;;;;;3.30;1.67;;;29.90;45.50;;;;;;5007545;28;20516;-87
2022/05/18 12:57:05;;;;;;;1.40;1.30;;;29.80;45.70;;;;;;5006220;28;20034;-89
2022/05/18 12:59:59;;;;;;;3.17;1.55;;;29.70;45.70;;;;;;5003347;28;20034;-89
2022/05/18 13:02:49;;;;;;;6.07;1.88;;;29.50;45.90;;;;;;5002995;28;20026;-90
2022/05/18 13:05:26;;;;;;;3.53;1.48;;;29.40;46.60;;;;;;5027446;28;20029;-89
2022/05/18 13:08:35;;;;;;;2.33;1.45;;;29.40;46.80;;;;;;5032479;28;20034;-89
2022/05/18 13:11:19;;;;;;;3.65;1.65;;;29.50;47.10;;;;;;5013136;28;20494;-87
2022/05/18 13:14:17;;;;;;;2.97;1.85;;;29.50;46.70;;;;;;5007816;28;20025;-87
2022/05/18 13:16:48;;;;;;;5.40;1.67;;;29.40;47.00;;;;;;5003233;28;20077;-87
2022/05/18 13:19:18;;;;;;;5.88;1.85;;;29.20;46.50;;;;;;5000936;28;20048;-88
2022/05/18 13:21:45;;;;;;;6.20;1.55;;;29.10;46.50;;;;;;5030574;28;20397;-87
2022/05/18 13:24:15;;;;;;;2.10;1.33;;;28.80;46.20;;;;;;5016355;28;20468;-88
2022/05/18 13:26:47;;;;;;;6.47;1.30;;;28.70;46.80;;;;;;5008821;28;20026;-88